sensor_id;sensor_type;location;lat;lon;timestamp;pressure;altitude;pressure_sealevel;temperature;humidity
37202;BME280;37799;52.390;6.136;2023-04-16T00:00:17;102091.84;;;8.31;100.00
37202;BME280;37799;52.390;6.136;2023-04-16T00:02:43;102101.31;;;8.33;100.00
37202;BME280;37799;52.390;6.136;2023-04-16T00:05:08;102098.81;;;8.42;100.00
37202;BME280;37799;52.390;6.136;2023-04-16T00:07:37;102101.31;;;8.30;100.00
37202;BME280;37799;52.390;6.136;2023-04-16T00:10:04;102107.38;;;8.34;100.00
37202;BME280;37799;52.390;6.136;2023-04-16T00:12:30;102103.03;;;8.33;100.00
37202;BME280;37799;52.390;6.136;2023-04-16T00:14:56;102106.56;;;8.39;100.00
37202;BME280;37799;52.390;6.136;2023-04-16T00:17:21;102106.56;;;8.36;100.00
37202;BME280;37799;52.390;6.136;2023-04-16T00:19:49;102110.78;;;8.26;100.00
37202;BME280;37799;52.390;6.136;2023-04-16T00:22:16;102114.22;;;8.22;100.00
37202;BME280;37799;52.390;6.136;2023-04-16T00:24:42;102120.22;;;8.26;100.00
37202;BME280;37799;52.390;6.136;2023-04-16T00:27:07;102113.38;;;8.33;100.00
37202;BME280;37799;52.390;6.136;2023-04-16T00:29:36;102114.31;;;8.44;100.00
37202;BME280;37799;52.390;6.136;2023-04-16T00:32:01;102116.81;;;8.30;100.00
37202;BME280;37799;52.390;6.136;2023-04-16T00:34:28;102116.06;;;8.54;100.00
37202;BME280;37799;52.390;6.136;2023-04-16T00:36:55;102115.19;;;8.50;100.00
37202;BME280;37799;52.390;6.136;2023-04-16T00:39:21;102110.78;;;8.33;100.00
37202;BME280;37799;52.390;6.136;2023-04-16T00:41:47;102116.88;;;8.38;100.00
37202;BME280;37799;52.390;6.136;2023-04-16T00:44:16;102110.78;;;8.26;100.00
37202;BME280;37799;52.390;6.136;2023-04-16T00:46:43;102113.44;;;8.36;100.00
37202;BME280;37799;52.390;6.136;2023-04-16T00:49:09;102111.72;;;8.44;100.00
37202;BME280;37799;52.390;6.136;2023-04-16T00:51:37;102119.47;;;8.38;100.00
37202;BME280;37799;52.390;6.136;2023-04-16T00:54:05;102121.97;;;8.27;100.00
37202;BME280;37799;52.390;6.136;2023-04-16T00:56:31;102115.94;;;8.28;100.00
37202;BME280;37799;52.390;6.136;2023-04-16T00:59:01;102113.44;;;8.43;100.00
37202;BME280;37799;52.390;6.136;2023-04-16T01:01:26;102112.56;;;8.40;100.00
37202;BME280;37799;52.390;6.136;2023-04-16T01:03:52;102112.50;;;8.31;100.00
37202;BME280;37799;52.390;6.136;2023-04-16T01:06:20;102108.19;;;8.26;100.00
37202;BME280;37799;52.390;6.136;2023-04-16T01:08:46;102116.75;;;8.18;100.00
37202;BME280;37799;52.390;6.136;2023-04-16T01:11:13;102119.47;;;8.38;100.00
37202;BME280;37799;52.390;6.136;2023-04-16T01:13:39;102118.50;;;8.26;100.00
37202;BME280;37799;52.390;6.136;2023-04-16T01:16:09;102119.50;;;8.51;100.00
37202;BME280;37799;52.390;6.136;2023-04-16T01:18:35;102119.50;;;8.51;100.00
37202;BME280;37799;52.390;6.136;2023-04-16T01:21:02;102111.72;;;8.35;100.00
37202;BME280;37799;52.390;6.136;2023-04-16T01:23:30;102114.22;;;8.32;100.00
37202;BME280;37799;52.390;6.136;2023-04-16T01:25:56;102115.94;;;8.29;100.00
37202;BME280;37799;52.390;6.136;2023-04-16T01:28:23;102107.31;;;8.23;100.00
37202;BME280;37799;52.390;6.136;2023-04-16T01:30:50;102112.50;;;8.29;100.00
37202;BME280;37799;52.390;6.136;2023-04-16T01:33:17;102116.00;;;8.36;100.00
37202;BME280;37799;52.390;6.136;2023-04-16T01:35:43;102122.91;;;8.43;100.00
37202;BME280;37799;52.390;6.136;2023-04-16T01:38:09;102122.09;;;8.56;100.00
37202;BME280;37799;52.390;6.136;2023-04-16T01:40:38;102122.91;;;8.46;100.00
37202;BME280;37799;52.390;6.136;2023-04-16T01:43:07;102121.19;;;8.45;100.00
37202;BME280;37799;52.390;6.136;2023-04-16T01:45:33;102114.28;;;8.39;100.00
37202;BME280;37799;52.390;6.136;2023-04-16T01:47:59;102114.34;;;8.50;100.00
37202;BME280;37799;52.390;6.136;2023-04-16T01:50:25;102119.47;;;8.41;100.00
37202;BME280;37799;52.390;6.136;2023-04-16T01:52:51;102107.44;;;8.52;100.00
37202;BME280;37799;52.390;6.136;2023-04-16T01:55:20;102114.28;;;8.41;100.00
37202;BME280;37799;52.390;6.136;2023-04-16T01:57:49;102112.53;;;8.34;100.00
37202;BME280;37799;52.390;6.136;2023-04-16T02:00:15;102120.31;;;8.41;100.00
37202;BME280;37799;52.390;6.136;2023-04-16T02:02:42;102117.75;;;8.37;100.00
37202;BME280;37799;52.390;6.136;2023-04-16T02:05:09;102103.03;;;8.33;100.00
37202;BME280;37799;52.390;6.136;2023-04-16T02:07:36;102122.91;;;8.43;100.00
37202;BME280;37799;52.390;6.136;2023-04-16T02:10:07;102119.47;;;8.39;100.00
37202;BME280;37799;52.390;6.136;2023-04-16T02:12:34;102117.78;;;8.52;100.00
37202;BME280;37799;52.390;6.136;2023-04-16T02:15:05;102108.28;;;8.42;100.00
37202;BME280;37799;52.390;6.136;2023-04-16T02:17:30;102116.06;;;8.49;100.00
37202;BME280;37799;52.390;6.136;2023-04-16T02:19:56;102112.59;;;8.44;100.00
37202;BME280;37799;52.390;6.136;2023-04-16T02:22:22;102117.78;;;8.50;100.00
37202;BME280;37799;52.390;6.136;2023-04-16T02:24:49;102116.88;;;8.45;100.00
37202;BME280;37799;52.390;6.136;2023-04-16T02:27:15;102113.44;;;8.45;100.00
37202;BME280;37799;52.390;6.136;2023-04-16T02:29:43;102114.31;;;8.44;100.00
37202;BME280;37799;52.390;6.136;2023-04-16T02:32:12;102109.13;;;8.41;100.00
37202;BME280;37799;52.390;6.136;2023-04-16T02:34:39;102106.59;;;8.48;100.00
37202;BME280;37799;52.390;6.136;2023-04-16T02:37:06;102112.56;;;8.40;100.00
37202;BME280;37799;52.390;6.136;2023-04-16T02:39:37;102116.91;;;8.57;100.00
37202;BME280;37799;52.390;6.136;2023-04-16T02:42:02;102110.03;;;8.56;100.00
37202;BME280;37799;52.390;6.136;2023-04-16T02:44:31;102120.34;;;8.50;100.00
37202;BME280;37799;52.390;6.136;2023-04-16T02:47:00;102115.16;;;8.44;100.00
37202;BME280;37799;52.390;6.136;2023-04-16T02:49:36;102122.94;;;8.55;100.00
37202;BME280;37799;52.390;6.136;2023-04-16T02:52:02;102125.53;;;8.52;100.00
37202;BME280;37799;52.390;6.136;2023-04-16T02:54:34;102130.69;;;8.49;100.00
37202;BME280;37799;52.390;6.136;2023-04-16T02:57:05;102127.25;;;8.51;100.00
37202;BME280;37799;52.390;6.136;2023-04-16T02:59:33;102122.09;;;8.48;100.00
37202;BME280;37799;52.390;6.136;2023-04-16T03:01:59;102121.22;;;8.51;100.00
37202;BME280;37799;52.390;6.136;2023-04-16T03:04:26;102122.91;;;8.43;100.00
37202;BME280;37799;52.390;6.136;2023-04-16T03:06:53;102131.53;;;8.52;100.00
37202;BME280;37799;52.390;6.136;2023-04-16T03:09:18;102128.97;;;8.55;100.00
37202;BME280;37799;52.390;6.136;2023-04-16T03:11:46;102129.81;;;8.50;100.00
37202;BME280;37799;52.390;6.136;2023-04-16T03:14:11;102138.44;;;8.52;100.00
37202;BME280;37799;52.390;6.136;2023-04-16T03:16:37;102131.56;;;8.57;100.00
37202;BME280;37799;52.390;6.136;2023-04-16T03:19:11;102136.72;;;8.57;100.00
37202;BME280;37799;52.390;6.136;2023-04-16T03:21:40;102144.47;;;8.54;100.00
37202;BME280;37799;52.390;6.136;2023-04-16T03:24:07;102136.72;;;8.54;100.00
37202;BME280;37799;52.390;6.136;2023-04-16T03:26:34;102136.72;;;8.48;100.00
37202;BME280;37799;52.390;6.136;2023-04-16T03:29:02;102140.13;;;8.44;100.00
37202;BME280;37799;52.390;6.136;2023-04-16T03:31:28;102141.88;;;8.51;100.00
37202;BME280;37799;52.390;6.136;2023-04-16T03:33:55;102147.03;;;8.48;100.00
37202;BME280;37799;52.390;6.136;2023-04-16T03:36:21;102148.81;;;8.61;100.00
37202;BME280;37799;52.390;6.136;2023-04-16T03:38:48;102148.75;;;8.58;100.00
37202;BME280;37799;52.390;6.136;2023-04-16T03:41:13;102149.66;;;8.69;100.00
37202;BME280;37799;52.390;6.136;2023-04-16T03:43:39;102148.75;;;8.58;100.00
37202;BME280;37799;52.390;6.136;2023-04-16T03:46:05;102146.19;;;8.56;100.00
37202;BME280;37799;52.390;6.136;2023-04-16T03:48:31;102150.47;;;8.53;100.00
37202;BME280;37799;52.390;6.136;2023-04-16T03:50:57;102151.34;;;8.52;100.00
37202;BME280;37799;52.390;6.136;2023-04-16T03:53:26;102155.66;;;8.56;100.00
37202;BME280;37799;52.390;6.136;2023-04-16T03:55:55;102158.22;;;8.47;100.00
37202;BME280;37799;52.390;6.136;2023-04-16T03:58:25;102157.38;;;8.54;100.00
37202;BME280;37799;52.390;6.136;2023-04-16T04:00:52;102160.81;;;8.48;100.00
37202;BME280;37799;52.390;6.136;2023-04-16T04:03:19;102155.63;;;8.48;100.00
37202;BME280;37799;52.390;6.136;2023-04-16T04:05:45;102153.06;;;8.48;100.00
37202;BME280;37799;52.390;6.136;2023-04-16T04:08:11;102157.38;;;8.51;100.00
37202;BME280;37799;52.390;6.136;2023-04-16T04:10:44;102155.66;;;8.56;100.00
37202;BME280;37799;52.390;6.136;2023-04-16T04:13:12;102161.72;;;8.61;100.00
37202;BME280;37799;52.390;6.136;2023-04-16T04:15:40;102166.88;;;8.61;100.00
37202;BME280;37799;52.390;6.136;2023-04-16T04:18:08;102159.94;;;8.57;100.00
37202;BME280;37799;52.390;6.136;2023-04-16T04:20:38;102171.13;;;8.50;100.00
37202;BME280;37799;52.390;6.136;2023-04-16T04:23:04;102170.22;;;8.45;100.00
37202;BME280;37799;52.390;6.136;2023-04-16T04:25:30;102166.00;;;8.65;100.00
37202;BME280;37799;52.390;6.136;2023-04-16T04:27:56;102170.34;;;8.78;100.00
37202;BME280;37799;52.390;6.136;2023-04-16T04:30:23;102174.59;;;8.55;100.00
37202;BME280;37799;52.390;6.136;2023-04-16T04:32:50;102169.41;;;8.55;100.00
37202;BME280;37799;52.390;6.136;2023-04-16T04:35:16;102172.03;;;8.67;100.00
37202;BME280;37799;52.390;6.136;2023-04-16T04:37:44;102178.06;;;8.60;100.00
37202;BME280;37799;52.390;6.136;2023-04-16T04:40:11;102183.19;;;8.57;100.00
37202;BME280;37799;52.390;6.136;2023-04-16T04:42:39;102184.09;;;8.61;100.00
37202;BME280;37799;52.390;6.136;2023-04-16T04:45:08;102191.84;;;8.61;100.00
37202;BME280;37799;52.390;6.136;2023-04-16T04:47:34;102187.47;;;8.47;100.00
37202;BME280;37799;52.390;6.136;2023-04-16T04:50:03;102185.81;;;8.68;100.00
37202;BME280;37799;52.390;6.136;2023-04-16T04:52:29;102190.06;;;8.52;100.00
37202;BME280;37799;52.390;6.136;2023-04-16T04:54:55;102189.22;;;8.53;100.00
37202;BME280;37799;52.390;6.136;2023-04-16T04:57:20;102195.22;;;8.55;100.00
37202;BME280;37799;52.390;6.136;2023-04-16T04:59:49;102190.13;;;8.61;100.00
37202;BME280;37799;52.390;6.136;2023-04-16T05:02:18;102195.25;;;8.58;100.00
37202;BME280;37799;52.390;6.136;2023-04-16T05:04:45;102196.94;;;8.51;100.00
37202;BME280;37799;52.390;6.136;2023-04-16T05:07:11;102190.00;;;8.41;100.00
37202;BME280;37799;52.390;6.136;2023-04-16T05:09:37;102200.34;;;8.40;100.00
37202;BME280;37799;52.390;6.136;2023-04-16T05:12:03;102201.25;;;8.52;100.00
37202;BME280;37799;52.390;6.136;2023-04-16T05:14:29;102204.75;;;8.61;100.00
37202;BME280;37799;52.390;6.136;2023-04-16T05:16:54;102202.16;;;8.62;100.00
37202;BME280;37799;52.390;6.136;2023-04-16T05:19:20;102210.78;;;8.70;100.00
37202;BME280;37799;52.390;6.136;2023-04-16T05:21:46;102214.22;;;8.63;100.00
37202;BME280;37799;52.390;6.136;2023-04-16T05:24:12;102215.03;;;8.54;100.00
37202;BME280;37799;52.390;6.136;2023-04-16T05:26:40;102209.88;;;8.57;100.00
37202;BME280;37799;52.390;6.136;2023-04-16T05:29:06;102220.25;;;8.62;100.00
37202;BME280;37799;52.390;6.136;2023-04-16T05:31:32;102215.91;;;8.58;100.00
37202;BME280;37799;52.390;6.136;2023-04-16T05:34:01;102227.13;;;8.63;100.00
37202;BME280;37799;52.390;6.136;2023-04-16T05:36:29;102226.31;;;8.73;100.00
37202;BME280;37799;52.390;6.136;2023-04-16T05:38:59;102236.66;;;8.73;100.00
37202;BME280;37799;52.390;6.136;2023-04-16T05:41:26;102236.59;;;8.67;100.00
37202;BME280;37799;52.390;6.136;2023-04-16T05:43:54;102236.59;;;8.70;100.00
37202;BME280;37799;52.390;6.136;2023-04-16T05:46:21;102245.28;;;8.84;100.00
37202;BME280;37799;52.390;6.136;2023-04-16T05:48:49;102241.81;;;8.82;100.00
37202;BME280;37799;52.390;6.136;2023-04-16T05:51:15;102248.72;;;8.83;100.00
37202;BME280;37799;52.390;6.136;2023-04-16T05:53:41;102243.59;;;8.96;100.00
37202;BME280;37799;52.390;6.136;2023-04-16T05:56:07;102246.13;;;8.83;100.00
37202;BME280;37799;52.390;6.136;2023-04-16T05:58:40;102248.75;;;8.96;100.00
37202;BME280;37799;52.390;6.136;2023-04-16T06:01:07;102254.81;;;9.02;100.00
37202;BME280;37799;52.390;6.136;2023-04-16T06:03:34;102241.88;;;8.89;100.00
37202;BME280;37799;52.390;6.136;2023-04-16T06:06:03;102249.56;;;8.84;100.00
37202;BME280;37799;52.390;6.136;2023-04-16T06:08:29;102244.44;;;8.85;100.00
37202;BME280;37799;52.390;6.136;2023-04-16T06:10:55;102245.31;;;8.94;100.00
37202;BME280;37799;52.390;6.136;2023-04-16T06:13:21;102256.53;;;8.99;100.00
37202;BME280;37799;52.390;6.136;2023-04-16T06:15:53;102260.88;;;9.15;100.00
37202;BME280;37799;52.390;6.136;2023-04-16T06:18:19;102259.13;;;9.11;100.00
37202;BME280;37799;52.390;6.136;2023-04-16T06:20:44;102255.69;;;9.04;100.00
37202;BME280;37799;52.390;6.136;2023-04-16T06:23:10;102260.81;;;8.97;100.00
37202;BME280;37799;52.390;6.136;2023-04-16T06:25:37;102265.16;;;9.04;100.00
37202;BME280;37799;52.390;6.136;2023-04-16T06:28:06;102263.44;;;9.04;100.00
37202;BME280;37799;52.390;6.136;2023-04-16T06:30:33;102262.56;;;9.04;100.00
37202;BME280;37799;52.390;6.136;2023-04-16T06:33:01;102277.25;;;9.12;100.00
37202;BME280;37799;52.390;6.136;2023-04-16T06:35:27;102266.94;;;9.37;100.00
37202;BME280;37799;52.390;6.136;2023-04-16T06:37:52;102273.00;;;9.40;100.00
37202;BME280;37799;52.390;6.136;2023-04-16T06:40:26;102272.13;;;9.35;100.00
37202;BME280;37799;52.390;6.136;2023-04-16T06:42:54;102277.31;;;9.38;100.00
37202;BME280;37799;52.390;6.136;2023-04-16T06:45:30;102271.28;;;9.45;100.00
37202;BME280;37799;52.390;6.136;2023-04-16T06:47:55;102277.34;;;9.64;100.00
37202;BME280;37799;52.390;6.136;2023-04-16T06:50:26;102275.63;;;9.71;100.00
37202;BME280;37799;52.390;6.136;2023-04-16T06:52:53;102285.13;;;9.78;100.00
37202;BME280;37799;52.390;6.136;2023-04-16T06:55:21;102283.41;;;9.77;100.00
37202;BME280;37799;52.390;6.136;2023-04-16T06:57:47;102285.97;;;9.88;100.00
37202;BME280;37799;52.390;6.136;2023-04-16T07:00:12;102289.44;;;10.05;100.00
37202;BME280;37799;52.390;6.136;2023-04-16T07:02:38;102293.72;;;10.11;100.00
37202;BME280;37799;52.390;6.136;2023-04-16T07:05:04;102292.84;;;10.13;100.00
37202;BME280;37799;52.390;6.136;2023-04-16T07:07:33;102293.75;;;10.23;100.00
37202;BME280;37799;52.390;6.136;2023-04-16T07:09:58;102296.34;;;10.32;100.00
37202;BME280;37799;52.390;6.136;2023-04-16T07:12:27;102292.00;;;10.34;100.00
37202;BME280;37799;52.390;6.136;2023-04-16T07:14:52;102309.28;;;10.32;100.00
37202;BME280;37799;52.390;6.136;2023-04-16T07:17:18;102303.22;;;10.27;100.00
37202;BME280;37799;52.390;6.136;2023-04-16T07:19:43;102308.41;;;10.27;100.00
37202;BME280;37799;52.390;6.136;2023-04-16T07:22:09;102314.47;;;10.33;100.00
37202;BME280;37799;52.390;6.136;2023-04-16T07:24:34;102317.88;;;10.40;100.00
37202;BME280;37799;52.390;6.136;2023-04-16T07:27:03;102316.16;;;10.45;100.00
37202;BME280;37799;52.390;6.136;2023-04-16T07:29:29;102316.16;;;10.39;100.00
37202;BME280;37799;52.390;6.136;2023-04-16T07:31:54;102323.94;;;10.45;100.00
37202;BME280;37799;52.390;6.136;2023-04-16T07:34:20;102324.78;;;10.38;100.00
37202;BME280;37799;52.390;6.136;2023-04-16T07:36:46;102319.59;;;10.53;100.00
37202;BME280;37799;52.390;6.136;2023-04-16T07:39:11;102328.19;;;10.71;100.00
37202;BME280;37799;52.390;6.136;2023-04-16T07:41:37;102328.22;;;10.63;100.00
37202;BME280;37799;52.390;6.136;2023-04-16T07:44:05;102324.72;;;10.81;100.00
37202;BME280;37799;52.390;6.136;2023-04-16T07:46:31;102324.69;;;10.87;100.00
37202;BME280;37799;52.390;6.136;2023-04-16T07:48:56;102329.88;;;10.87;100.00
37202;BME280;37799;52.390;6.136;2023-04-16T07:51:22;102337.66;;;10.87;100.00
37202;BME280;37799;52.390;6.136;2023-04-16T07:53:48;102333.34;;;10.80;100.00
37202;BME280;37799;52.390;6.136;2023-04-16T07:56:13;102342.88;;;10.75;100.00
37202;BME280;37799;52.390;6.136;2023-04-16T07:58:39;102335.91;;;10.90;100.00
37202;BME280;37799;52.390;6.136;2023-04-16T08:01:11;102328.91;;;11.11;100.00
37202;BME280;37799;52.390;6.136;2023-04-16T08:03:37;102331.47;;;11.21;100.00
37202;BME280;37799;52.390;6.136;2023-04-16T08:06:05;102337.41;;;11.46;100.00
37202;BME280;37799;52.390;6.136;2023-04-16T08:08:31;102341.75;;;11.40;100.00
37202;BME280;37799;52.390;6.136;2023-04-16T08:11:01;102340.78;;;11.59;100.00
37202;BME280;37799;52.390;6.136;2023-04-16T08:13:27;102354.53;;;11.67;100.00
37202;BME280;37799;52.390;6.136;2023-04-16T08:15:52;102349.31;;;11.75;100.00
37202;BME280;37799;52.390;6.136;2023-04-16T08:18:18;102358.78;;;11.87;100.00
37202;BME280;37799;52.390;6.136;2023-04-16T08:20:45;102363.03;;;11.98;100.00
37202;BME280;37799;52.390;6.136;2023-04-16T08:23:10;102362.09;;;12.07;100.00
37202;BME280;37799;52.390;6.136;2023-04-16T08:25:36;102364.56;;;12.22;100.00
37202;BME280;37799;52.390;6.136;2023-04-16T08:28:02;102377.28;;;12.53;100.00
37202;BME280;37799;52.390;6.136;2023-04-16T08:30:28;102383.22;;;12.67;100.00
37202;BME280;37799;52.390;6.136;2023-04-16T08:32:54;102380.66;;;12.61;100.00
37202;BME280;37799;52.390;6.136;2023-04-16T08:35:20;102374.47;;;12.74;100.00
37202;BME280;37799;52.390;6.136;2023-04-16T08:37:45;102379.53;;;12.89;100.00
37202;BME280;37799;52.390;6.136;2023-04-16T08:40:11;102377.47;;;13.16;100.00
37202;BME280;37799;52.390;6.136;2023-04-16T08:42:40;102386.88;;;13.31;100.00
37202;BME280;37799;52.390;6.136;2023-04-16T08:45:14;102388.06;;;13.70;100.00
37202;BME280;37799;52.390;6.136;2023-04-16T08:47:45;102395.31;;;14.08;100.00
37202;BME280;37799;52.390;6.136;2023-04-16T08:50:18;102392.84;;;14.53;100.00
37202;BME280;37799;52.390;6.136;2023-04-16T08:52:57;102404.06;;;14.56;100.00
37202;BME280;37799;52.390;6.136;2023-04-16T08:55:47;102403.97;;;14.62;100.00
37202;BME280;37799;52.390;6.136;2023-04-16T08:58:14;102392.81;;;15.02;100.00
37202;BME280;37799;52.390;6.136;2023-04-16T09:00:42;102400.25;;;15.20;100.00
37202;BME280;37799;52.390;6.136;2023-04-16T09:03:08;102410.41;;;15.34;100.00
37202;BME280;37799;52.390;6.136;2023-04-16T09:05:37;102402.41;;;15.00;100.00
37202;BME280;37799;52.390;6.136;2023-04-16T09:08:04;102403.53;;;15.30;100.00
37202;BME280;37799;52.390;6.136;2023-04-16T09:10:31;102396.09;;;15.10;100.00
37202;BME280;37799;52.390;6.136;2023-04-16T09:12:57;102398.19;;;14.93;100.00
37202;BME280;37799;52.390;6.136;2023-04-16T09:15:23;102388.47;;;15.43;100.00
37202;BME280;37799;52.390;6.136;2023-04-16T09:17:54;102397.50;;;16.07;100.00
37202;BME280;37799;52.390;6.136;2023-04-16T09:20:22;102404.50;;;16.42;100.00
37202;BME280;37799;52.390;6.136;2023-04-16T09:22:49;102401.44;;;16.93;100.00
37202;BME280;37799;52.390;6.136;2023-04-16T09:25:19;102398.69;;;16.97;100.00
37202;BME280;37799;52.390;6.136;2023-04-16T09:27:49;102407.28;;;16.70;100.00
37202;BME280;37799;52.390;6.136;2023-04-16T09:32:48;102411.72;;;16.65;100.00
37202;BME280;37799;52.390;6.136;2023-04-16T09:35:15;102416.31;;;16.57;100.00
37202;BME280;37799;52.390;6.136;2023-04-16T09:37:41;102420.06;;;16.80;100.00
37202;BME280;37799;52.390;6.136;2023-04-16T09:40:10;102415.09;;;17.02;100.00
37202;BME280;37799;52.390;6.136;2023-04-16T09:42:37;102424.19;;;16.89;100.00
37202;BME280;37799;52.390;6.136;2023-04-16T09:45:05;102417.34;;;16.49;100.00
37202;BME280;37799;52.390;6.136;2023-04-16T09:47:42;102421.88;;;16.43;100.00
37202;BME280;37799;52.390;6.136;2023-04-16T09:50:13;102423.25;;;16.22;100.00
37202;BME280;37799;52.390;6.136;2023-04-16T09:52:38;102418.94;;;15.84;100.00
37202;BME280;37799;52.390;6.136;2023-04-16T09:55:04;102420.88;;;15.74;100.00
37202;BME280;37799;52.390;6.136;2023-04-16T09:57:30;102416.81;;;15.62;100.00
37202;BME280;37799;52.390;6.136;2023-04-16T10:00:07;102411.38;;;15.72;100.00
37202;BME280;37799;52.390;6.136;2023-04-16T10:02:34;102406.66;;;15.87;100.00
37202;BME280;37799;52.390;6.136;2023-04-16T10:05:03;102416.41;;;16.18;100.00
37202;BME280;37799;52.390;6.136;2023-04-16T10:07:32;102412.97;;;16.16;100.00
37202;BME280;37799;52.390;6.136;2023-04-16T10:09:57;102414.72;;;16.15;100.00
37202;BME280;37799;52.390;6.136;2023-04-16T10:12:23;102419.63;;;16.29;100.00
37202;BME280;37799;52.390;6.136;2023-04-16T10:14:48;102405.09;;;16.51;100.00
37202;BME280;37799;52.390;6.136;2023-04-16T10:17:16;102411.97;;;16.56;100.00
37202;BME280;37799;52.390;6.136;2023-04-16T10:19:42;102419.69;;;16.60;100.00
37202;BME280;37799;52.390;6.136;2023-04-16T10:22:08;102418.75;;;16.63;100.00
37202;BME280;37799;52.390;6.136;2023-04-16T10:24:34;102422.75;;;16.77;100.00
37202;BME280;37799;52.390;6.136;2023-04-16T10:27:01;102424.88;;;16.96;100.00
37202;BME280;37799;52.390;6.136;2023-04-16T10:29:34;102435.81;;;17.41;100.00
37202;BME280;37799;52.390;6.136;2023-04-16T10:32:02;102430.56;;;17.12;100.00
37202;BME280;37799;52.390;6.136;2023-04-16T10:34:28;102436.25;;;17.26;100.00
37202;BME280;37799;52.390;6.136;2023-04-16T10:36:55;102436.25;;;16.95;100.00
37202;BME280;37799;52.390;6.136;2023-04-16T10:39:22;102430.22;;;16.91;100.00
37202;BME280;37799;52.390;6.136;2023-04-16T10:41:50;102436.03;;;17.02;100.00
37202;BME280;37799;52.390;6.136;2023-04-16T10:44:17;102432.66;;;16.99;100.00
37202;BME280;37799;52.390;6.136;2023-04-16T10:46:45;102429.75;;;17.09;100.00
37202;BME280;37799;52.390;6.136;2023-04-16T10:49:24;102437.25;;;16.89;100.00
37202;BME280;37799;52.390;6.136;2023-04-16T10:52:14;102438.34;;;16.82;100.00
37202;BME280;37799;52.390;6.136;2023-04-16T10:54:43;102429.75;;;16.77;100.00
37202;BME280;37799;52.390;6.136;2023-04-16T10:57:18;102429.53;;;16.85;100.00
37202;BME280;37799;52.390;6.136;2023-04-16T10:59:44;102421.38;;;16.97;100.00
37202;BME280;37799;52.390;6.136;2023-04-16T11:02:19;102430.06;;;16.97;100.00
37202;BME280;37799;52.390;6.136;2023-04-16T11:04:46;102429.69;;;17.11;100.00
37202;BME280;37799;52.390;6.136;2023-04-16T11:09:44;102423.03;;;17.30;100.00
37202;BME280;37799;52.390;6.136;2023-04-16T11:12:14;102427.66;;;17.52;100.00
37202;BME280;37799;52.390;6.136;2023-04-16T11:14:46;102427.78;;;17.77;100.00
37202;BME280;37799;52.390;6.136;2023-04-16T11:17:12;102429.56;;;18.04;100.00
37202;BME280;37799;52.390;6.136;2023-04-16T11:19:38;102425.88;;;18.10;100.00
37202;BME280;37799;52.390;6.136;2023-04-16T11:22:03;102436.53;;;18.32;100.00
37202;BME280;37799;52.390;6.136;2023-04-16T11:24:30;102432.06;;;18.07;100.00
37202;BME280;37799;52.390;6.136;2023-04-16T11:26:56;102432.84;;;18.11;100.00
37202;BME280;37799;52.390;6.136;2023-04-16T11:29:41;102425.34;;;17.71;100.00
37202;BME280;37799;52.390;6.136;2023-04-16T11:32:07;102428.13;;;17.64;100.00
37202;BME280;37799;52.390;6.136;2023-04-16T11:34:32;102420.50;;;17.57;100.00
37202;BME280;37799;52.390;6.136;2023-04-16T11:36:58;102420.16;;;17.69;100.00
37202;BME280;37799;52.390;6.136;2023-04-16T11:39:23;102418.19;;;17.77;100.00
37202;BME280;37799;52.390;6.136;2023-04-16T11:41:50;102427.75;;;18.06;100.00
37202;BME280;37799;52.390;6.136;2023-04-16T11:44:25;102428.44;;;17.83;100.00
37202;BME280;37799;52.390;6.136;2023-04-16T11:46:52;102429.13;;;17.90;100.00
37202;BME280;37799;52.390;6.136;2023-04-16T11:49:29;102436.16;;;18.16;100.00
37202;BME280;37799;52.390;6.136;2023-04-16T11:51:56;102426.69;;;17.84;100.00
37202;BME280;37799;52.390;6.136;2023-04-16T11:54:22;102430.25;;;17.81;100.00
37202;BME280;37799;52.390;6.136;2023-04-16T11:56:49;102423.50;;;18.02;100.00
37202;BME280;37799;52.390;6.136;2023-04-16T11:59:22;102426.78;;;17.81;100.00
37202;BME280;37799;52.390;6.136;2023-04-16T12:01:51;102426.66;;;17.85;100.00
37202;BME280;37799;52.390;6.136;2023-04-16T12:04:25;102427.13;;;17.70;100.00
37202;BME280;37799;52.390;6.136;2023-04-16T12:07:11;102425.13;;;17.49;100.00
37202;BME280;37799;52.390;6.136;2023-04-16T12:10:04;102435.59;;;17.18;100.00
37202;BME280;37799;52.390;6.136;2023-04-16T12:12:32;102428.75;;;16.83;100.00
37202;BME280;37799;52.390;6.136;2023-04-16T12:15:04;102425.78;;;16.61;100.00
37202;BME280;37799;52.390;6.136;2023-04-16T12:17:33;102432.31;;;16.44;100.00
37202;BME280;37799;52.390;6.136;2023-04-16T12:20:12;102430.94;;;15.92;100.00
37202;BME280;37799;52.390;6.136;2023-04-16T12:22:47;102429.56;;;15.76;100.00
37202;BME280;37799;52.390;6.136;2023-04-16T12:25:17;102433.78;;;15.40;100.00
37202;BME280;37799;52.390;6.136;2023-04-16T12:27:47;102427.34;;;15.56;100.00
37202;BME280;37799;52.390;6.136;2023-04-16T12:30:15;102432.41;;;15.66;100.00
37202;BME280;37799;52.390;6.136;2023-04-16T12:32:42;102427.22;;;15.64;100.00
37202;BME280;37799;52.390;6.136;2023-04-16T12:35:09;102431.75;;;15.54;100.00
37202;BME280;37799;52.390;6.136;2023-04-16T12:37:36;102431.72;;;15.56;100.00
37202;BME280;37799;52.390;6.136;2023-04-16T12:40:08;102436.94;;;15.56;100.00
37202;BME280;37799;52.390;6.136;2023-04-16T12:42:34;102444.69;;;15.60;100.00
37202;BME280;37799;52.390;6.136;2023-04-16T12:45:04;102435.00;;;15.67;100.00
37202;BME280;37799;52.390;6.136;2023-04-16T12:47:32;102441.56;;;15.43;100.00
37202;BME280;37799;52.390;6.136;2023-04-16T12:49:58;102442.66;;;15.31;100.00
37202;BME280;37799;52.390;6.136;2023-04-16T12:52:24;102447.94;;;15.28;100.00